sensor_id;sensor_type;location;lat;lon;timestamp;P1;durP1;ratioP1;P2;durP2;ratioP2
22308;SDS011;11322;50.858;-1.778;2023-06-22T00:00:34;8.85;;;4.7;;
22308;SDS011;11322;50.858;-1.778;2023-06-22T00:05:34;11.75;;;4.0;;
22308;SDS011;11322;50.858;-1.778;2023-06-22T00:10:34;7.4;;;4.05;;
22308;SDS011;11322;50.858;-1.778;2023-06-22T00:15:34;8.0;;;4.4;;
22308;SDS011;11322;50.858;-1.778;2023-06-22T00:20:34;10.5;;;4.45;;
22308;SDS011;11322;50.858;-1.778;2023-06-22T00:25:34;12.0;;;4.75;;
22308;SDS011;11322;50.858;-1.778;2023-06-22T00:30:34;11.65;;;4.4;;
22308;SDS011;11322;50.858;-1.778;2023-06-22T00:35:34;8.05;;;3.9;;
22308;SDS011;11322;50.858;-1.778;2023-06-22T00:40:34;10.6;;;4.4;;
22308;SDS011;11322;50.858;-1.778;2023-06-22T00:45:34;10.0;;;4.6;;
22308;SDS011;11322;50.858;-1.778;2023-06-22T00:50:34;9.8;;;4.1;;
22308;SDS011;11322;50.858;-1.778;2023-06-22T00:55:35;7.05;;;3.5;;
22308;SDS011;11322;50.858;-1.778;2023-06-22T01:00:34;6.95;;;3.8;;
22308;SDS011;11322;50.858;-1.778;2023-06-22T01:05:34;5.6;;;3.45;;
22308;SDS011;11322;50.858;-1.778;2023-06-22T01:10:35;8.05;;;4.0;;
22308;SDS011;11322;50.858;-1.778;2023-06-22T01:15:36;8.5;;;4.4;;
22308;SDS011;11322;50.858;-1.778;2023-06-22T01:20:34;6.7;;;3.75;;
22308;SDS011;11322;50.858;-1.778;2023-06-22T01:25:36;5.9;;;3.95;;
22308;SDS011;11322;50.858;-1.778;2023-06-22T01:30:34;6.35;;;3.45;;
22308;SDS011;11322;50.858;-1.778;2023-06-22T01:35:34;8.0;;;4.0;;
22308;SDS011;11322;50.858;-1.778;2023-06-22T01:40:34;9.75;;;4.15;;
22308;SDS011;11322;50.858;-1.778;2023-06-22T01:45:34;12.15;;;5.3;;
22308;SDS011;11322;50.858;-1.778;2023-06-22T01:50:34;5.6;;;3.85;;
22308;SDS011;11322;50.858;-1.778;2023-06-22T01:55:34;6.9;;;4.2;;
22308;SDS011;11322;50.858;-1.778;2023-06-22T02:00:35;5.2;;;3.1;;
22308;SDS011;11322;50.858;-1.778;2023-06-22T02:05:34;6.45;;;3.75;;
22308;SDS011;11322;50.858;-1.778;2023-06-22T02:10:34;8.3;;;3.65;;
22308;SDS011;11322;50.858;-1.778;2023-06-22T02:15:34;8.75;;;3.25;;
22308;SDS011;11322;50.858;-1.778;2023-06-22T02:20:36;8.7;;;3.45;;
22308;SDS011;11322;50.858;-1.778;2023-06-22T02:25:34;5.95;;;4.0;;
22308;SDS011;11322;50.858;-1.778;2023-06-22T02:30:34;8.5;;;3.8;;
22308;SDS011;11322;50.858;-1.778;2023-06-22T02:35:34;7.55;;;3.55;;
22308;SDS011;11322;50.858;-1.778;2023-06-22T02:40:34;7.05;;;4.1;;
22308;SDS011;11322;50.858;-1.778;2023-06-22T02:45:34;8.0;;;4.3;;
22308;SDS011;11322;50.858;-1.778;2023-06-22T02:50:34;6.5;;;4.1;;
22308;SDS011;11322;50.858;-1.778;2023-06-22T02:55:34;7.0;;;4.0;;
22308;SDS011;11322;50.858;-1.778;2023-06-22T03:00:34;5.75;;;3.05;;
22308;SDS011;11322;50.858;-1.778;2023-06-22T03:05:34;5.1;;;3.05;;
22308;SDS011;11322;50.858;-1.778;2023-06-22T03:10:34;5.6;;;4.1;;
22308;SDS011;11322;50.858;-1.778;2023-06-22T03:15:34;6.85;;;3.2;;
22308;SDS011;11322;50.858;-1.778;2023-06-22T03:20:34;5.2;;;3.05;;
22308;SDS011;11322;50.858;-1.778;2023-06-22T03:25:34;7.55;;;4.2;;
22308;SDS011;11322;50.858;-1.778;2023-06-22T03:30:34;5.15;;;3.7;;
22308;SDS011;11322;50.858;-1.778;2023-06-22T03:35:34;5.15;;;3.0;;
22308;SDS011;11322;50.858;-1.778;2023-06-22T03:40:34;8.5;;;3.35;;
22308;SDS011;11322;50.858;-1.778;2023-06-22T03:45:34;7.85;;;3.7;;
22308;SDS011;11322;50.858;-1.778;2023-06-22T03:50:34;8.25;;;3.6;;
22308;SDS011;11322;50.858;-1.778;2023-06-22T03:55:34;7.65;;;3.9;;
22308;SDS011;11322;50.858;-1.778;2023-06-22T04:00:34;7.1;;;3.5;;
22308;SDS011;11322;50.858;-1.778;2023-06-22T04:05:34;6.25;;;3.4;;
22308;SDS011;11322;50.858;-1.778;2023-06-22T04:10:34;5.1;;;3.35;;
22308;SDS011;11322;50.858;-1.778;2023-06-22T04:15:34;6.55;;;3.35;;
22308;SDS011;11322;50.858;-1.778;2023-06-22T04:20:34;6.1;;;3.35;;
22308;SDS011;11322;50.858;-1.778;2023-06-22T04:25:34;7.85;;;3.2;;
22308;SDS011;11322;50.858;-1.778;2023-06-22T04:30:34;8.45;;;4.25;;
22308;SDS011;11322;50.858;-1.778;2023-06-22T04:35:34;5.15;;;2.8;;
22308;SDS011;11322;50.858;-1.778;2023-06-22T04:40:34;5.35;;;3.35;;
22308;SDS011;11322;50.858;-1.778;2023-06-22T04:45:34;8.45;;;3.9;;
22308;SDS011;11322;50.858;-1.778;2023-06-22T04:50:34;8.8;;;3.5;;
22308;SDS011;11322;50.858;-1.778;2023-06-22T04:55:34;12.2;;;4.6;;
22308;SDS011;11322;50.858;-1.778;2023-06-22T05:00:34;15.85;;;4.8;;
22308;SDS011;11322;50.858;-1.778;2023-06-22T05:05:34;9.35;;;4.4;;
22308;SDS011;11322;50.858;-1.778;2023-06-22T05:10:34;8.9;;;4.6;;
22308;SDS011;11322;50.858;-1.778;2023-06-22T05:15:34;7.55;;;4.15;;
22308;SDS011;11322;50.858;-1.778;2023-06-22T05:20:34;9.95;;;4.4;;
22308;SDS011;11322;50.858;-1.778;2023-06-22T05:25:34;7.8;;;4.1;;
22308;SDS011;11322;50.858;-1.778;2023-06-22T05:30:34;11.15;;;5.25;;
22308;SDS011;11322;50.858;-1.778;2023-06-22T05:35:34;10.5;;;4.9;;
22308;SDS011;11322;50.858;-1.778;2023-06-22T05:40:34;11.8;;;5.05;;
22308;SDS011;11322;50.858;-1.778;2023-06-22T05:45:34;8.1;;;4.6;;
22308;SDS011;11322;50.858;-1.778;2023-06-22T05:50:34;9.7;;;4.75;;
22308;SDS011;11322;50.858;-1.778;2023-06-22T05:55:34;10.4;;;4.65;;
22308;SDS011;11322;50.858;-1.778;2023-06-22T06:00:34;10.85;;;5.65;;
22308;SDS011;11322;50.858;-1.778;2023-06-22T06:05:34;11.2;;;5.2;;
22308;SDS011;11322;50.858;-1.778;2023-06-22T06:10:34;9.8;;;4.75;;
22308;SDS011;11322;50.858;-1.778;2023-06-22T06:15:34;10.5;;;5.35;;
22308;SDS011;11322;50.858;-1.778;2023-06-22T06:20:34;8.45;;;5.6;;
22308;SDS011;11322;50.858;-1.778;2023-06-22T06:25:34;8.3;;;4.45;;
22308;SDS011;11322;50.858;-1.778;2023-06-22T06:30:34;11.35;;;5.9;;
22308;SDS011;11322;50.858;-1.778;2023-06-22T06:35:34;9.05;;;4.3;;
22308;SDS011;11322;50.858;-1.778;2023-06-22T06:40:34;17.4;;;6.7;;
22308;SDS011;11322;50.858;-1.778;2023-06-22T06:45:34;13.05;;;5.05;;
22308;SDS011;11322;50.858;-1.778;2023-06-22T06:50:34;19.6;;;7.9;;
22308;SDS011;11322;50.858;-1.778;2023-06-22T06:55:34;11.8;;;5.05;;
22308;SDS011;11322;50.858;-1.778;2023-06-22T07:00:34;15.65;;;6.9;;
22308;SDS011;11322;50.858;-1.778;2023-06-22T07:05:34;16.25;;;8.0;;
22308;SDS011;11322;50.858;-1.778;2023-06-22T07:10:34;18.7;;;7.95;;
22308;SDS011;11322;50.858;-1.778;2023-06-22T07:15:34;17.4;;;6.7;;
22308;SDS011;11322;50.858;-1.778;2023-06-22T07:20:34;23.5;;;9.25;;
22308;SDS011;11322;50.858;-1.778;2023-06-22T07:25:34;21.25;;;8.6;;
22308;SDS011;11322;50.858;-1.778;2023-06-22T07:30:34;16.6;;;8.35;;
22308;SDS011;11322;50.858;-1.778;2023-06-22T07:35:34;21.25;;;9.0;;
22308;SDS011;11322;50.858;-1.778;2023-06-22T07:40:34;21.3;;;8.3;;
22308;SDS011;11322;50.858;-1.778;2023-06-22T07:45:34;20.55;;;9.2;;
22308;SDS011;11322;50.858;-1.778;2023-06-22T07:50:34;27.75;;;8.95;;
22308;SDS011;11322;50.858;-1.778;2023-06-22T07:55:34;19.2;;;7.95;;
22308;SDS011;11322;50.858;-1.778;2023-06-22T08:00:34;13.9;;;7.4;;
22308;SDS011;11322;50.858;-1.778;2023-06-22T08:05:34;23.4;;;10.2;;
22308;SDS011;11322;50.858;-1.778;2023-06-22T08:10:34;23.15;;;10.9;;
22308;SDS011;11322;50.858;-1.778;2023-06-22T08:15:34;16.2;;;8.35;;
22308;SDS011;11322;50.858;-1.778;2023-06-22T08:20:34;15.15;;;7.7;;
22308;SDS011;11322;50.858;-1.778;2023-06-22T08:25:34;19.75;;;9.15;;
22308;SDS011;11322;50.858;-1.778;2023-06-22T08:30:34;20.0;;;7.95;;
22308;SDS011;11322;50.858;-1.778;2023-06-22T08:35:34;19.95;;;8.25;;
22308;SDS011;11322;50.858;-1.778;2023-06-22T08:40:34;15.6;;;7.5;;
22308;SDS011;11322;50.858;-1.778;2023-06-22T08:45:34;19.6;;;9.1;;
22308;SDS011;11322;50.858;-1.778;2023-06-22T08:50:34;18.25;;;9.2;;
22308;SDS011;11322;50.858;-1.778;2023-06-22T08:55:34;18.3;;;8.05;;
22308;SDS011;11322;50.858;-1.778;2023-06-22T09:00:34;13.15;;;7.3;;
22308;SDS011;11322;50.858;-1.778;2023-06-22T09:05:34;14.0;;;7.8;;
22308;SDS011;11322;50.858;-1.778;2023-06-22T09:10:34;11.25;;;5.75;;
22308;SDS011;11322;50.858;-1.778;2023-06-22T09:15:34;17.35;;;8.05;;
22308;SDS011;11322;50.858;-1.778;2023-06-22T09:20:34;15.95;;;8.0;;
22308;SDS011;11322;50.858;-1.778;2023-06-22T09:25:34;13.95;;;6.7;;
22308;SDS011;11322;50.858;-1.778;2023-06-22T09:30:34;15.15;;;6.45;;
22308;SDS011;11322;50.858;-1.778;2023-06-22T09:35:34;14.65;;;7.55;;
22308;SDS011;11322;50.858;-1.778;2023-06-22T09:40:34;8.3;;;5.05;;
22308;SDS011;11322;50.858;-1.778;2023-06-22T09:45:34;8.9;;;5.4;;
22308;SDS011;11322;50.858;-1.778;2023-06-22T09:50:34;13.8;;;6.9;;
22308;SDS011;11322;50.858;-1.778;2023-06-22T09:55:34;8.55;;;4.95;;
22308;SDS011;11322;50.858;-1.778;2023-06-22T10:00:34;10.7;;;4.15;;
22308;SDS011;11322;50.858;-1.778;2023-06-22T10:05:34;8.9;;;4.25;;
22308;SDS011;11322;50.858;-1.778;2023-06-22T10:10:34;8.55;;;4.0;;
22308;SDS011;11322;50.858;-1.778;2023-06-22T10:15:34;10.75;;;3.6;;
22308;SDS011;11322;50.858;-1.778;2023-06-22T10:20:34;10.95;;;4.6;;
22308;SDS011;11322;50.858;-1.778;2023-06-22T10:25:34;7.9;;;3.9;;
22308;SDS011;11322;50.858;-1.778;2023-06-22T10:30:34;7.65;;;3.85;;
22308;SDS011;11322;50.858;-1.778;2023-06-22T10:35:34;7.6;;;4.3;;
22308;SDS011;11322;50.858;-1.778;2023-06-22T10:40:34;9.35;;;4.6;;
22308;SDS011;11322;50.858;-1.778;2023-06-22T10:45:34;6.9;;;3.5;;
22308;SDS011;11322;50.858;-1.778;2023-06-22T10:50:34;7.8;;;3.95;;
22308;SDS011;11322;50.858;-1.778;2023-06-22T10:55:34;7.85;;;3.0;;
22308;SDS011;11322;50.858;-1.778;2023-06-22T11:00:34;7.55;;;3.7;;
22308;SDS011;11322;50.858;-1.778;2023-06-22T11:05:34;4.4;;;3.0;;
22308;SDS011;11322;50.858;-1.778;2023-06-22T11:10:34;6.2;;;3.25;;
22308;SDS011;11322;50.858;-1.778;2023-06-22T11:15:34;7.5;;;3.8;;
22308;SDS011;11322;50.858;-1.778;2023-06-22T11:20:34;7.35;;;3.7;;
22308;SDS011;11322;50.858;-1.778;2023-06-22T11:25:34;5.35;;;2.3;;
22308;SDS011;11322;50.858;-1.778;2023-06-22T11:30:34;6.3;;;3.0;;
22308;SDS011;11322;50.858;-1.778;2023-06-22T11:35:34;4.5;;;2.8;;
22308;SDS011;11322;50.858;-1.778;2023-06-22T11:40:34;8.75;;;2.8;;
22308;SDS011;11322;50.858;-1.778;2023-06-22T11:45:34;4.2;;;2.5;;
22308;SDS011;11322;50.858;-1.778;2023-06-22T11:50:34;8.0;;;3.0;;
22308;SDS011;11322;50.858;-1.778;2023-06-22T11:55:34;7.4;;;2.95;;
22308;SDS011;11322;50.858;-1.778;2023-06-22T12:00:34;5.15;;;3.1;;
22308;SDS011;11322;50.858;-1.778;2023-06-22T12:05:34;4.9;;;2.8;;
22308;SDS011;11322;50.858;-1.778;2023-06-22T12:11:34;6.55;;;3.6;;
22308;SDS011;11322;50.858;-1.778;2023-06-22T12:15:34;9.4;;;2.4;;
22308;SDS011;11322;50.858;-1.778;2023-06-22T12:20:34;8.7;;;2.8;;
22308;SDS011;11322;50.858;-1.778;2023-06-22T12:25:34;5.55;;;2.3;;
22308;SDS011;11322;50.858;-1.778;2023-06-22T12:30:34;6.8;;;3.05;;
22308;SDS011;11322;50.858;-1.778;2023-06-22T12:35:34;5.9;;;2.75;;
22308;SDS011;11322;50.858;-1.778;2023-06-22T12:40:34;3.55;;;1.8;;
22308;SDS011;11322;50.858;-1.778;2023-06-22T12:45:34;3.15;;;2.5;;
22308;SDS011;11322;50.858;-1.778;2023-06-22T12:50:34;4.85;;;2.35;;
22308;SDS011;11322;50.858;-1.778;2023-06-22T12:55:34;3.95;;;1.85;;
22308;SDS011;11322;50.858;-1.778;2023-06-22T13:00:34;4.95;;;2.8;;
22308;SDS011;11322;50.858;-1.778;2023-06-22T13:05:34;3.85;;;2.45;;
22308;SDS011;11322;50.858;-1.778;2023-06-22T13:10:34;6.7;;;2.55;;
22308;SDS011;11322;50.858;-1.778;2023-06-22T13:15:34;2.85;;;1.95;;
22308;SDS011;11322;50.858;-1.778;2023-06-22T13:20:34;2.65;;;1.7;;
22308;SDS011;11322;50.858;-1.778;2023-06-22T13:25:34;5.85;;;2.1;;
22308;SDS011;11322;50.858;-1.778;2023-06-22T13:30:34;5.15;;;2.2;;
22308;SDS011;11322;50.858;-1.778;2023-06-22T13:35:34;2.75;;;2.0;;
22308;SDS011;11322;50.858;-1.778;2023-06-22T13:40:34;3.5;;;2.3;;
22308;SDS011;11322;50.858;-1.778;2023-06-22T13:45:34;2.8;;;1.75;;
22308;SDS011;11322;50.858;-1.778;2023-06-22T13:50:34;4.3;;;2.15;;
22308;SDS011;11322;50.858;-1.778;2023-06-22T13:55:34;4.25;;;1.9;;
22308;SDS011;11322;50.858;-1.778;2023-06-22T14:00:34;5.5;;;2.2;;
22308;SDS011;11322;50.858;-1.778;2023-06-22T14:05:34;3.3;;;1.8;;
22308;SDS011;11322;50.858;-1.778;2023-06-22T14:10:34;3.05;;;1.7;;
22308;SDS011;11322;50.858;-1.778;2023-06-22T14:15:34;4.4;;;1.6;;
22308;SDS011;11322;50.858;-1.778;2023-06-22T14:20:34;3.3;;;1.8;;
22308;SDS011;11322;50.858;-1.778;2023-06-22T14:25:34;3.25;;;1.9;;
22308;SDS011;11322;50.858;-1.778;2023-06-22T14:30:34;2.2;;;1.55;;
22308;SDS011;11322;50.858;-1.778;2023-06-22T14:35:34;3.1;;;2.05;;
22308;SDS011;11322;50.858;-1.778;2023-06-22T14:40:34;4.3;;;2.4;;
22308;SDS011;11322;50.858;-1.778;2023-06-22T14:45:34;4.15;;;1.75;;
22308;SDS011;11322;50.858;-1.778;2023-06-22T14:50:34;2.6;;;1.9;;
22308;SDS011;11322;50.858;-1.778;2023-06-22T14:55:34;2.75;;;2.2;;
22308;SDS011;11322;50.858;-1.778;2023-06-22T15:00:34;2.8;;;2.0;;
22308;SDS011;11322;50.858;-1.778;2023-06-22T15:05:34;3.0;;;2.2;;
22308;SDS011;11322;50.858;-1.778;2023-06-22T15:10:34;3.75;;;2.3;;
22308;SDS011;11322;50.858;-1.778;2023-06-22T15:15:34;4.1;;;2.2;;
22308;SDS011;11322;50.858;-1.778;2023-06-22T15:20:34;3.5;;;2.05;;
22308;SDS011;11322;50.858;-1.778;2023-06-22T15:25:34;2.6;;;2.2;;
22308;SDS011;11322;50.858;-1.778;2023-06-22T15:30:34;3.75;;;2.1;;
22308;SDS011;11322;50.858;-1.778;2023-06-22T15:35:34;4.9;;;2.45;;
22308;SDS011;11322;50.858;-1.778;2023-06-22T15:40:34;4.05;;;2.3;;
22308;SDS011;11322;50.858;-1.778;2023-06-22T15:45:34;2.5;;;1.9;;
22308;SDS011;11322;50.858;-1.778;2023-06-22T15:50:34;4.4;;;2.4;;
22308;SDS011;11322;50.858;-1.778;2023-06-22T15:55:34;3.3;;;2.2;;
22308;SDS011;11322;50.858;-1.778;2023-06-22T16:00:34;3.5;;;2.1;;
22308;SDS011;11322;50.858;-1.778;2023-06-22T16:05:34;2.2;;;1.55;;
22308;SDS011;11322;50.858;-1.778;2023-06-22T16:10:34;4.95;;;2.2;;
22308;SDS011;11322;50.858;-1.778;2023-06-22T16:15:34;4.95;;;2.0;;
22308;SDS011;11322;50.858;-1.778;2023-06-22T16:20:34;4.25;;;2.05;;
22308;SDS011;11322;50.858;-1.778;2023-06-22T16:25:34;2.3;;;1.75;;
22308;SDS011;11322;50.858;-1.778;2023-06-22T16:30:34;5.3;;;2.4;;
22308;SDS011;11322;50.858;-1.778;2023-06-22T16:35:34;4.45;;;2.25;;
22308;SDS011;11322;50.858;-1.778;2023-06-22T16:40:34;3.2;;;1.9;;
22308;SDS011;11322;50.858;-1.778;2023-06-22T16:45:34;4.4;;;2.1;;
22308;SDS011;11322;50.858;-1.778;2023-06-22T16:50:34;2.7;;;1.6;;
22308;SDS011;11322;50.858;-1.778;2023-06-22T16:55:34;3.6;;;1.6;;
22308;SDS011;11322;50.858;-1.778;2023-06-22T17:00:34;2.9;;;2.0;;
22308;SDS011;11322;50.858;-1.778;2023-06-22T17:05:34;2.85;;;1.85;;
22308;SDS011;11322;50.858;-1.778;2023-06-22T17:10:34;3.8;;;1.8;;
22308;SDS011;11322;50.858;-1.778;2023-06-22T17:15:34;2.2;;;1.7;;
22308;SDS011;11322;50.858;-1.778;2023-06-22T17:20:34;5.6;;;1.65;;
22308;SDS011;11322;50.858;-1.778;2023-06-22T17:25:34;2.4;;;1.55;;
22308;SDS011;11322;50.858;-1.778;2023-06-22T17:30:34;5.1;;;1.45;;
22308;SDS011;11322;50.858;-1.778;2023-06-22T17:35:34;2.2;;;1.7;;
22308;SDS011;11322;50.858;-1.778;2023-06-22T17:35:46;2.2;;;1.7;;
22308;SDS011;11322;50.858;-1.778;2023-06-22T17:40:34;3.35;;;1.55;;
22308;SDS011;11322;50.858;-1.778;2023-06-22T17:45:39;1.6;;;1.2;;
22308;SDS011;11322;50.858;-1.778;2023-06-22T17:50:34;2.15;;;1.25;;
22308;SDS011;11322;50.858;-1.778;2023-06-22T17:55:34;1.95;;;1.15;;
22308;SDS011;11322;50.858;-1.778;2023-06-22T18:00:34;2.3;;;1.5;;
22308;SDS011;11322;50.858;-1.778;2023-06-22T18:05:34;2.05;;;1.3;;
22308;SDS011;11322;50.858;-1.778;2023-06-22T18:10:34;2.45;;;0.9;;
22308;SDS011;11322;50.858;-1.778;2023-06-22T18:15:34;1.9;;;1.4;;
22308;SDS011;11322;50.858;-1.778;2023-06-22T18:20:34;2.35;;;1.2;;
22308;SDS011;11322;50.858;-1.778;2023-06-22T18:25:34;3.1;;;1.35;;
22308;SDS011;11322;50.858;-1.778;2023-06-22T18:30:34;1.25;;;1.0;;
22308;SDS011;11322;50.858;-1.778;2023-06-22T18:35:34;2.95;;;1.4;;
22308;SDS011;11322;50.858;-1.778;2023-06-22T18:40:34;2.05;;;1.1;;
22308;SDS011;11322;50.858;-1.778;2023-06-22T18:45:34;2.25;;;0.85;;
22308;SDS011;11322;50.858;-1.778;2023-06-22T18:50:34;2.25;;;1.05;;
22308;SDS011;11322;50.858;-1.778;2023-06-22T18:55:34;2.1;;;1.2;;
22308;SDS011;11322;50.858;-1.778;2023-06-22T19:00:34;2.05;;;1.15;;
22308;SDS011;11322;50.858;-1.778;2023-06-22T19:05:37;1.3;;;1.1;;
22308;SDS011;11322;50.858;-1.778;2023-06-22T19:10:41;1.35;;;1.0;;
22308;SDS011;11322;50.858;-1.778;2023-06-22T19:15:34;1.6;;;1.1;;
22308;SDS011;11322;50.858;-1.778;2023-06-22T19:20:34;2.75;;;0.85;;
22308;SDS011;11322;50.858;-1.778;2023-06-22T19:25:34;1.65;;;0.9;;
22308;SDS011;11322;50.858;-1.778;2023-06-22T19:30:34;1.6;;;0.85;;
22308;SDS011;11322;50.858;-1.778;2023-06-22T19:35:34;2.4;;;0.9;;
22308;SDS011;11322;50.858;-1.778;2023-06-22T19:40:34;3.5;;;1.7;;
22308;SDS011;11322;50.858;-1.778;2023-06-22T19:45:37;3.25;;;1.1;;
22308;SDS011;11322;50.858;-1.778;2023-06-22T19:50:34;2.75;;;1.2;;
22308;SDS011;11322;50.858;-1.778;2023-06-22T19:55:35;1.5;;;0.9;;
22308;SDS011;11322;50.858;-1.778;2023-06-22T20:00:34;1.7;;;1.1;;
22308;SDS011;11322;50.858;-1.778;2023-06-22T20:05:39;1.85;;;0.9;;
22308;SDS011;11322;50.858;-1.778;2023-06-22T20:10:36;1.45;;;1.2;;
22308;SDS011;11322;50.858;-1.778;2023-06-22T20:15:38;3.7;;;1.3;;
22308;SDS011;11322;50.858;-1.778;2023-06-22T20:20:34;2.6;;;1.5;;
22308;SDS011;11322;50.858;-1.778;2023-06-22T20:25:34;2.3;;;1.5;;
22308;SDS011;11322;50.858;-1.778;2023-06-22T20:30:34;3.8;;;1.45;;
22308;SDS011;11322;50.858;-1.778;2023-06-22T20:35:34;3.5;;;1.3;;
22308;SDS011;11322;50.858;-1.778;2023-06-22T20:40:34;3.55;;;1.85;;
22308;SDS011;11322;50.858;-1.778;2023-06-22T20:45:34;3.15;;;1.6;;
22308;SDS011;11322;50.858;-1.778;2023-06-22T20:50:34;3.5;;;1.4;;
22308;SDS011;11322;50.858;-1.778;2023-06-22T20:55:34;2.95;;;1.6;;
22308;SDS011;11322;50.858;-1.778;2023-06-22T21:00:34;1.9;;;1.5;;
22308;SDS011;11322;50.858;-1.778;2023-06-22T21:05:34;3.45;;;1.65;;
22308;SDS011;11322;50.858;-1.778;2023-06-22T21:10:34;2.35;;;1.25;;
22308;SDS011;11322;50.858;-1.778;2023-06-22T21:15:34;2.0;;;1.4;;
22308;SDS011;11322;50.858;-1.778;2023-06-22T21:20:34;2.55;;;1.65;;
22308;SDS011;11322;50.858;-1.778;2023-06-22T21:25:34;2.85;;;1.5;;
22308;SDS011;11322;50.858;-1.778;2023-06-22T21:30:34;2.6;;;1.3;;
22308;SDS011;11322;50.858;-1.778;2023-06-22T21:35:34;5.85;;;1.5;;
22308;SDS011;11322;50.858;-1.778;2023-06-22T21:40:34;3.4;;;1.95;;
22308;SDS011;11322;50.858;-1.778;2023-06-22T21:45:34;2.0;;;1.45;;
22308;SDS011;11322;50.858;-1.778;2023-06-22T21:50:34;4.4;;;1.9;;
22308;SDS011;11322;50.858;-1.778;2023-06-22T21:55:34;3.35;;;1.75;;
22308;SDS011;11322;50.858;-1.778;2023-06-22T22:00:34;3.6;;;1.6;;
22308;SDS011;11322;50.858;-1.778;2023-06-22T22:05:34;4.15;;;2.0;;
22308;SDS011;11322;50.858;-1.778;2023-06-22T22:10:34;2.1;;;1.5;;
22308;SDS011;11322;50.858;-1.778;2023-06-22T22:15:34;2.35;;;1.6;;
22308;SDS011;11322;50.858;-1.778;2023-06-22T22:20:34;2.8;;;1.95;;
22308;SDS011;11322;50.858;-1.778;2023-06-22T22:25:34;2.3;;;1.8;;
22308;SDS011;11322;50.858;-1.778;2023-06-22T22:30:34;3.3;;;1.8;;
22308;SDS011;11322;50.858;-1.778;2023-06-22T22:35:34;3.75;;;2.1;;
22308;SDS011;11322;50.858;-1.778;2023-06-22T22:40:34;2.95;;;1.6;;
22308;SDS011;11322;50.858;-1.778;2023-06-22T22:45:34;5.3;;;2.15;;
22308;SDS011;11322;50.858;-1.778;2023-06-22T22:50:34;3.25;;;2.2;;
22308;SDS011;11322;50.858;-1.778;2023-06-22T22:55:34;6.8;;;1.8;;
22308;SDS011;11322;50.858;-1.778;2023-06-22T23:00:34;3.15;;;1.75;;
22308;SDS011;11322;50.858;-1.778;2023-06-22T23:05:34;3.3;;;1.95;;
22308;SDS011;11322;50.858;-1.778;2023-06-22T23:10:34;2.45;;;2.15;;
22308;SDS011;11322;50.858;-1.778;2023-06-22T23:15:34;4.45;;;2.0;;
22308;SDS011;11322;50.858;-1.778;2023-06-22T23:20:34;4.65;;;2.4;;
22308;SDS011;11322;50.858;-1.778;2023-06-22T23:25:34;2.85;;;2.2;;
22308;SDS011;11322;50.858;-1.778;2023-06-22T23:30:34;2.9;;;1.8;;
22308;SDS011;11322;50.858;-1.778;2023-06-22T23:35:34;3.6;;;1.9;;
22308;SDS011;11322;50.858;-1.778;2023-06-22T23:40:34;4.6;;;2.0;;
22308;SDS011;11322;50.858;-1.778;2023-06-22T23:45:34;3.05;;;2.0;;
22308;SDS011;11322;50.858;-1.778;2023-06-22T23:50:34;3.4;;;1.85;;
22308;SDS011;11322;50.858;-1.778;2023-06-22T23:55:34;3.6;;;2.2;;
